createdAt,value
2023-05-04T00:00:28.074Z,7.38
2023-05-04T00:02:55.447Z,7.28
2023-05-04T00:05:22.768Z,7.33
2023-05-04T00:07:50.106Z,8.15
2023-05-04T00:10:17.559Z,8.25
2023-05-04T00:12:46.478Z,6.28
2023-05-04T00:15:16.122Z,7.00
2023-05-04T00:18:08.029Z,10.97
2023-05-04T00:20:35.366Z,7.78
2023-05-04T00:23:02.612Z,5.78
2023-05-04T00:25:29.935Z,8.52
2023-05-04T00:28:00.290Z,7.47
2023-05-04T00:30:27.454Z,10.27
2023-05-04T00:32:54.800Z,7.72
2023-05-04T00:35:21.994Z,6.28
2023-05-04T00:37:49.229Z,7.40
2023-05-04T00:40:16.538Z,5.53
2023-05-04T00:42:43.771Z,5.43
2023-05-04T00:45:11.687Z,5.97
2023-05-04T00:47:39.109Z,6.35
2023-05-04T00:50:07.113Z,8.02
2023-05-04T00:52:34.944Z,8.73
2023-05-04T00:55:02.662Z,6.07
2023-05-04T00:57:30.922Z,7.18
2023-05-04T00:59:58.301Z,8.73
2023-05-04T01:02:25.647Z,6.00
2023-05-04T01:04:53.085Z,6.38
2023-05-04T01:07:54.871Z,5.23
2023-05-04T01:10:40.362Z,5.72
2023-05-04T01:13:12.834Z,8.80
2023-05-04T01:15:43.115Z,6.63
2023-05-04T01:18:10.671Z,8.85
2023-05-04T01:20:38.049Z,7.23
2023-05-04T01:23:07.560Z,5.47
2023-05-04T01:26:12.633Z,8.85
2023-05-04T01:28:46.476Z,5.45
2023-05-04T01:31:17.344Z,6.32
2023-05-04T01:33:48.172Z,8.30
2023-05-04T01:36:15.674Z,8.02
2023-05-04T01:38:42.903Z,7.28
2023-05-04T01:41:10.325Z,5.95
2023-05-04T01:43:37.742Z,5.40
2023-05-04T01:46:05.072Z,4.57
2023-05-04T01:48:32.402Z,5.82
2023-05-04T01:50:59.761Z,5.85
2023-05-04T01:53:27.100Z,4.68
2023-05-04T01:55:54.381Z,5.57
2023-05-04T01:58:21.696Z,6.83
2023-05-04T02:00:49.203Z,4.38
2023-05-04T02:03:19.283Z,6.15
2023-05-04T02:05:46.976Z,4.90
2023-05-04T02:08:20.194Z,4.38
2023-05-04T02:10:48.630Z,4.40
2023-05-04T02:13:16.167Z,4.50
2023-05-04T02:15:43.489Z,4.65
2023-05-04T02:18:11.018Z,4.20
2023-05-04T02:20:38.446Z,4.25
2023-05-04T02:23:06.014Z,5.03
2023-05-04T02:25:59.181Z,5.32
2023-05-04T02:28:26.851Z,7.15
2023-05-04T02:30:55.630Z,4.70
2023-05-04T02:33:23.329Z,4.60
2023-05-04T02:35:50.679Z,4.30
2023-05-04T02:38:18.071Z,3.72
2023-05-04T02:40:45.358Z,6.85
2023-05-04T02:43:15.137Z,3.17
2023-05-04T02:45:42.377Z,4.18
2023-05-04T02:48:09.799Z,5.83
2023-05-04T02:50:38.028Z,3.75
2023-05-04T02:53:07.151Z,3.30
2023-05-04T02:55:34.822Z,3.58
2023-05-04T02:58:02.344Z,4.22
2023-05-04T03:00:30.099Z,4.43
2023-05-04T03:02:57.303Z,4.05
2023-05-04T03:05:24.620Z,6.68
2023-05-04T03:07:51.990Z,4.90
2023-05-04T03:10:19.467Z,4.28
2023-05-04T03:12:47.193Z,3.77
2023-05-04T03:15:14.609Z,4.13
2023-05-04T03:17:41.829Z,4.53
2023-05-04T03:20:10.049Z,3.80
2023-05-04T03:22:37.430Z,3.35
2023-05-04T03:25:05.296Z,3.70
2023-05-04T03:27:35.530Z,3.35
2023-05-04T03:30:03.202Z,3.42
2023-05-04T03:32:31.035Z,3.35
2023-05-04T03:34:58.440Z,3.30
2023-05-04T03:37:28.090Z,3.47
2023-05-04T03:39:55.350Z,3.65
2023-05-04T03:42:22.568Z,4.43
2023-05-04T03:44:49.839Z,3.03
2023-05-04T03:47:17.071Z,3.00
2023-05-04T03:49:44.261Z,5.30
2023-05-04T03:52:11.608Z,3.95
2023-05-04T03:54:39.057Z,3.45
2023-05-04T03:57:06.462Z,3.60
2023-05-04T03:59:33.792Z,4.22
2023-05-04T04:02:01.477Z,4.80
2023-05-04T04:04:28.953Z,4.10
2023-05-04T04:07:01.178Z,3.38
2023-05-04T04:09:31.702Z,3.72
2023-05-04T04:12:00.225Z,4.45
2023-05-04T04:14:29.384Z,3.50
2023-05-04T04:16:56.702Z,3.42
2023-05-04T04:19:30.139Z,4.25
2023-05-04T04:22:00.105Z,3.70
2023-05-04T04:24:28.678Z,4.05
2023-05-04T04:27:01.394Z,3.10
2023-05-04T04:29:30.281Z,6.00
2023-05-04T04:31:57.738Z,3.35
2023-05-04T04:34:25.456Z,4.18
2023-05-04T04:36:52.913Z,4.90
2023-05-04T04:39:20.249Z,3.67
2023-05-04T04:41:47.884Z,3.30
2023-05-04T04:44:15.547Z,3.00
2023-05-04T04:46:43.120Z,3.75
2023-05-04T04:49:10.790Z,3.83
2023-05-04T04:51:46.978Z,3.53
2023-05-04T04:54:14.505Z,3.40
2023-05-04T04:56:42.151Z,3.50
2023-05-04T04:59:10.873Z,3.42
2023-05-04T05:01:38.379Z,4.13
2023-05-04T05:04:05.956Z,3.47
2023-05-04T05:06:33.321Z,3.50
2023-05-04T05:09:24.112Z,3.25
2023-05-04T05:11:51.470Z,4.03
2023-05-04T05:14:18.852Z,3.65
2023-05-04T05:16:46.391Z,3.30
2023-05-04T05:19:16.669Z,3.92
2023-05-04T05:21:55.210Z,3.85
2023-05-04T05:24:25.049Z,3.83
2023-05-04T05:26:53.605Z,3.83
2023-05-04T05:29:22.046Z,4.80
2023-05-04T05:31:49.586Z,3.88
2023-05-04T05:34:16.958Z,3.25
2023-05-04T05:36:44.970Z,3.47
2023-05-04T05:39:12.455Z,4.18
2023-05-04T05:45:09.328Z,3.10
2023-05-04T05:47:37.434Z,3.42
2023-05-04T05:50:05.440Z,3.95
2023-05-04T05:52:33.041Z,10.43
2023-05-04T05:55:02.384Z,3.73
2023-05-04T05:57:30.262Z,3.35
2023-05-04T05:59:58.353Z,4.18
2023-05-04T06:02:25.765Z,3.10
2023-05-04T06:04:53.204Z,3.45
2023-05-04T06:07:21.967Z,3.53
2023-05-04T06:09:49.746Z,16.38
2023-05-04T06:12:17.607Z,4.07
2023-05-04T06:14:44.870Z,3.97
2023-05-04T06:17:12.369Z,4.13
2023-05-04T06:19:42.351Z,6.47
2023-05-04T06:22:12.271Z,3.10
2023-05-04T06:24:39.826Z,4.55
2023-05-04T06:27:07.670Z,4.43
2023-05-04T06:29:46.943Z,5.65
2023-05-04T06:32:14.617Z,6.83
2023-05-04T06:34:42.124Z,3.55
2023-05-04T06:37:09.807Z,4.22
2023-05-04T06:39:37.295Z,4.57
2023-05-04T06:42:04.821Z,3.35
2023-05-04T06:44:37.172Z,6.63
2023-05-04T06:47:05.131Z,4.47
2023-05-04T06:49:32.756Z,8.43
2023-05-04T06:52:00.241Z,4.18
2023-05-04T06:54:28.538Z,4.85
2023-05-04T06:56:56.111Z,3.77
2023-05-04T06:59:23.300Z,4.60
2023-05-04T07:01:50.607Z,3.28
2023-05-04T07:04:20.259Z,3.53
2023-05-04T07:06:47.715Z,3.38
2023-05-04T07:09:15.437Z,7.90
2023-05-04T07:11:43.017Z,3.13
2023-05-04T07:14:10.552Z,3.38
2023-05-04T07:16:38.651Z,4.03
2023-05-04T07:19:06.081Z,7.00
2023-05-04T07:21:33.692Z,3.97
2023-05-04T07:24:01.728Z,5.80
2023-05-04T07:26:31.935Z,3.28
2023-05-04T07:28:59.443Z,3.70
2023-05-04T07:35:32.617Z,6.83
2023-05-04T07:38:00.022Z,3.60
2023-05-04T07:40:28.948Z,3.50
2023-05-04T07:42:56.734Z,5.97
2023-05-04T07:45:24.175Z,3.28
2023-05-04T07:47:52.744Z,6.60
2023-05-04T07:50:20.968Z,3.80
2023-05-04T07:52:49.621Z,2.95
2023-05-04T07:55:17.224Z,7.07
2023-05-04T07:57:44.551Z,3.45
2023-05-04T08:00:12.519Z,3.47
2023-05-04T08:02:40.328Z,3.05
2023-05-04T08:05:08.653Z,4.82
2023-05-04T08:07:37.006Z,5.65
2023-05-04T08:10:05.357Z,3.97
2023-05-04T08:12:33.552Z,4.70
2023-05-04T08:15:01.285Z,2.88
2023-05-04T08:17:30.127Z,3.42
2023-05-04T08:19:57.765Z,5.03
2023-05-04T08:22:25.185Z,3.00
2023-05-04T08:24:52.712Z,2.90
2023-05-04T08:27:20.002Z,3.47
2023-05-04T08:29:47.388Z,2.70
2023-05-04T08:32:14.830Z,2.90
2023-05-04T08:34:42.188Z,3.75
2023-05-04T08:37:09.784Z,2.50
2023-05-04T08:39:38.871Z,3.00
2023-05-04T08:42:07.891Z,2.35
2023-05-04T08:44:35.607Z,5.05
2023-05-04T08:47:04.894Z,5.18
2023-05-04T08:49:32.570Z,2.73
2023-05-04T08:52:00.934Z,2.90
2023-05-04T08:54:34.490Z,2.40
2023-05-04T08:57:04.226Z,2.70
2023-05-04T08:59:33.810Z,3.25
2023-05-04T09:05:15.682Z,2.55
2023-05-04T09:07:43.351Z,2.75
2023-05-04T09:10:11.057Z,3.65
2023-05-04T09:12:38.504Z,3.83
2023-05-04T09:15:24.420Z,2.63
2023-05-04T09:17:59.841Z,2.75
2023-05-04T09:20:27.360Z,2.50
2023-05-04T09:23:22.781Z,2.72
2023-05-04T09:25:51.274Z,2.15
2023-05-04T09:28:19.864Z,6.63
2023-05-04T09:30:49.341Z,3.55
2023-05-04T09:33:17.324Z,5.85
2023-05-04T09:35:44.840Z,4.13
2023-05-04T09:38:12.298Z,2.47
2023-05-04T09:40:42.438Z,2.80
2023-05-04T09:43:11.070Z,2.45
2023-05-04T09:45:42.599Z,2.65
2023-05-04T09:48:20.809Z,2.47
2023-05-04T09:50:54.801Z,4.35
2023-05-04T09:53:25.181Z,3.87
2023-05-04T09:56:05.171Z,2.92
2023-05-04T09:58:35.029Z,2.40
2023-05-04T10:04:29.259Z,2.97
2023-05-04T10:06:57.862Z,2.50
2023-05-04T10:09:29.474Z,4.78
2023-05-04T10:12:06.965Z,2.70
2023-05-04T10:14:37.679Z,4.93
2023-05-04T10:17:15.664Z,2.50
2023-05-04T10:20:17.244Z,2.50
2023-05-04T10:23:15.138Z,4.55
2023-05-04T10:26:02.127Z,2.30
2023-05-04T10:28:50.601Z,3.63
2023-05-04T10:31:18.449Z,2.70
2023-05-04T10:33:46.376Z,3.00
2023-05-04T10:36:13.705Z,2.95
2023-05-04T10:38:41.702Z,3.40
2023-05-04T10:41:22.577Z,4.22
2023-05-04T10:43:53.643Z,4.22
2023-05-04T10:46:28.359Z,3.83
2023-05-04T10:48:55.791Z,2.70
2023-05-04T10:51:35.686Z,2.90
2023-05-04T10:54:19.282Z,5.45
2023-05-04T10:56:47.008Z,3.00
2023-05-04T10:59:15.212Z,4.17
2023-05-04T11:01:46.122Z,2.35
2023-05-04T11:04:21.786Z,3.13
2023-05-04T11:07:04.440Z,3.78
2023-05-04T11:09:51.726Z,3.58
2023-05-04T11:12:20.009Z,5.67
2023-05-04T11:14:49.807Z,6.32
2023-05-04T11:19:53.460Z,6.15
2023-05-04T11:22:21.329Z,3.45
2023-05-04T11:24:52.419Z,3.37
2023-05-04T11:27:25.277Z,4.80
2023-05-04T11:30:01.448Z,3.10
2023-05-04T11:32:43.998Z,3.97
2023-05-04T11:35:17.575Z,4.18
2023-05-04T11:37:46.685Z,4.10
2023-05-04T11:40:19.659Z,4.45
2023-05-04T11:42:50.127Z,4.65
2023-05-04T11:45:21.592Z,4.35
2023-05-04T11:47:50.769Z,5.30
2023-05-04T11:50:19.834Z,3.50
2023-05-04T11:52:48.259Z,3.83
2023-05-04T11:55:32.554Z,3.20
2023-05-04T11:58:13.863Z,6.22
2023-05-04T12:00:47.211Z,6.47
2023-05-04T12:03:17.556Z,3.20
2023-05-04T12:05:49.437Z,9.60
2023-05-04T12:08:35.112Z,5.68
2023-05-04T12:11:26.359Z,3.20
2023-05-04T12:14:09.938Z,7.85
2023-05-04T12:16:39.065Z,7.97
2023-05-04T12:19:08.889Z,6.45
2023-05-04T12:21:36.397Z,3.80
2023-05-04T12:24:04.398Z,3.85
2023-05-04T12:26:32.066Z,3.60
2023-05-04T12:28:59.637Z,3.30
2023-05-04T12:31:27.409Z,5.32
2023-05-04T12:33:55.402Z,4.68
2023-05-04T12:36:23.250Z,6.03
2023-05-04T12:38:50.821Z,4.13
2023-05-04T12:41:18.270Z,5.00
2023-05-04T12:43:45.743Z,5.03
2023-05-04T12:46:13.122Z,6.22
2023-05-04T12:48:40.432Z,4.03
2023-05-04T12:51:08.037Z,4.05
2023-05-04T12:53:35.239Z,3.90
2023-05-04T12:56:03.983Z,4.22
2023-05-04T12:58:31.525Z,6.47
2023-05-04T13:00:59.314Z,4.30
2023-05-04T13:03:27.018Z,4.93
2023-05-04T13:05:55.263Z,6.23
2023-05-04T13:08:22.733Z,4.22
2023-05-04T13:10:51.205Z,4.38
2023-05-04T13:13:19.528Z,4.00
2023-05-04T13:15:50.604Z,6.15
2023-05-04T13:18:18.078Z,7.90
2023-05-04T13:20:46.162Z,4.88
2023-05-04T13:23:14.240Z,4.15
2023-05-04T13:25:42.431Z,4.72
2023-05-04T13:28:09.870Z,4.85
2023-05-04T13:30:37.196Z,5.43
2023-05-04T13:33:13.436Z,7.95
2023-05-04T13:35:48.790Z,4.88
2023-05-04T13:38:16.101Z,6.18
2023-05-04T13:40:44.582Z,5.18
2023-05-04T13:43:11.871Z,4.60
2023-05-04T13:45:39.657Z,7.85
2023-05-04T13:48:07.511Z,6.95
2023-05-04T13:50:35.236Z,7.45
2023-05-04T13:53:03.283Z,5.65
2023-05-04T13:55:31.250Z,4.30
2023-05-04T13:57:58.627Z,5.18
2023-05-04T14:00:26.009Z,4.82
2023-05-04T14:02:53.648Z,5.05
2023-05-04T14:05:24.368Z,4.13
2023-05-04T14:07:52.674Z,5.73
2023-05-04T14:10:19.993Z,3.45
2023-05-04T14:12:48.435Z,4.32
2023-05-04T14:15:18.641Z,4.55
2023-05-04T14:17:45.935Z,3.80
2023-05-04T14:20:13.987Z,4.33
2023-05-04T14:22:42.265Z,7.75
2023-05-04T14:25:09.769Z,5.55
2023-05-04T14:27:37.105Z,4.38
2023-05-04T14:30:05.432Z,4.45
2023-05-04T14:32:35.438Z,8.43
2023-05-04T14:35:09.277Z,4.40
2023-05-04T14:37:39.210Z,3.97
2023-05-04T14:40:08.637Z,4.75
2023-05-04T14:42:37.298Z,6.10
2023-05-04T14:45:06.041Z,3.50
2023-05-04T14:47:34.153Z,5.40
2023-05-04T14:50:02.503Z,4.70
2023-05-04T14:52:29.963Z,3.88
2023-05-04T14:54:57.453Z,5.30
2023-05-04T14:57:24.779Z,6.73
2023-05-04T14:59:52.424Z,3.60
2023-05-04T15:02:19.890Z,4.53
2023-05-04T15:04:47.412Z,5.55
2023-05-04T15:07:16.405Z,5.75
2023-05-04T15:09:47.123Z,4.90
2023-05-04T15:12:14.426Z,5.72
2023-05-04T15:14:41.801Z,9.68
2023-05-04T15:17:09.085Z,8.98
2023-05-04T15:19:40.072Z,11.23
2023-05-04T15:22:07.680Z,6.33
2023-05-04T15:24:35.039Z,6.07
2023-05-04T15:27:02.872Z,4.28
2023-05-04T15:29:32.926Z,5.15
2023-05-04T15:32:00.482Z,6.32
2023-05-04T15:34:27.861Z,4.67
2023-05-04T15:36:55.855Z,4.13
2023-05-04T15:39:23.209Z,5.25
2023-05-04T15:41:50.597Z,5.97
2023-05-04T15:44:21.355Z,8.10
2023-05-04T15:46:49.008Z,5.63
2023-05-04T15:49:16.343Z,4.07
2023-05-04T15:51:43.629Z,5.18
2023-05-04T15:54:11.009Z,9.43
2023-05-04T15:56:38.247Z,6.53
2023-05-04T15:59:05.784Z,4.53
2023-05-04T16:01:34.023Z,5.65
2023-05-04T16:04:01.704Z,5.70
2023-05-04T16:06:30.798Z,4.22
2023-05-04T16:08:58.444Z,7.05
2023-05-04T16:11:26.110Z,6.83
2023-05-04T16:13:53.783Z,9.25
2023-05-04T16:16:21.219Z,8.20
2023-05-04T16:18:48.591Z,4.63
2023-05-04T16:21:15.996Z,7.00
2023-05-04T16:23:43.162Z,5.00
2023-05-04T16:26:10.263Z,4.35
2023-05-04T16:28:37.436Z,10.77
2023-05-04T16:31:09.620Z,6.20
2023-05-04T16:33:38.440Z,8.80
2023-05-04T16:36:09.651Z,9.60
2023-05-04T16:38:37.931Z,11.95
2023-05-04T16:41:05.335Z,9.63
2023-05-04T16:43:32.684Z,13.95
2023-05-04T16:45:59.933Z,11.55
2023-05-04T16:48:27.380Z,15.80
2023-05-04T16:50:54.690Z,13.43
2023-05-04T16:53:22.283Z,24.08
2023-05-04T16:55:59.768Z,15.93
2023-05-04T16:58:27.902Z,17.35
2023-05-04T17:01:07.314Z,9.50
2023-05-04T17:03:36.435Z,11.57
2023-05-04T17:06:04.311Z,8.30
2023-05-04T17:08:32.037Z,9.00
2023-05-04T17:11:07.431Z,10.23
2023-05-04T17:13:37.045Z,7.33
2023-05-04T17:16:07.163Z,7.60
2023-05-04T17:18:41.996Z,7.63
2023-05-04T17:21:14.537Z,8.00
2023-05-04T17:23:45.338Z,11.38
2023-05-04T17:26:12.696Z,11.20
2023-05-04T17:28:40.225Z,11.00
2023-05-04T17:31:11.630Z,8.48
2023-05-04T17:33:39.702Z,11.63
2023-05-04T17:36:07.963Z,9.50
2023-05-04T17:38:35.332Z,9.90
2023-05-04T17:41:02.743Z,14.10
2023-05-04T17:43:30.038Z,11.63
2023-05-04T17:45:57.364Z,9.02
2023-05-04T17:48:24.638Z,10.40
2023-05-04T17:50:52.149Z,8.80
2023-05-04T17:53:19.548Z,13.35
2023-05-04T17:55:46.795Z,7.28
2023-05-04T17:58:14.051Z,6.90
2023-05-04T18:00:42.232Z,7.88
2023-05-04T18:03:10.653Z,6.33
2023-05-04T18:05:38.283Z,6.20
2023-05-04T18:08:55.293Z,5.97
2023-05-04T18:11:29.552Z,7.60
2023-05-04T18:14:31.249Z,6.78
2023-05-04T18:17:01.784Z,8.53
2023-05-04T18:19:29.751Z,7.90
2023-05-04T18:21:57.129Z,7.32
2023-05-04T18:24:24.572Z,6.00
2023-05-04T18:26:54.070Z,7.60
2023-05-04T18:29:21.400Z,5.30
2023-05-04T18:31:48.864Z,6.30
2023-05-04T18:34:16.728Z,6.30
2023-05-04T18:36:49.359Z,8.48
2023-05-04T18:39:25.308Z,6.88
2023-05-04T18:41:52.875Z,9.50
2023-05-04T18:44:23.188Z,9.27
2023-05-04T18:47:00.976Z,10.18
2023-05-04T18:49:40.127Z,9.30
2023-05-04T19:02:26.316Z,6.63
2023-05-04T19:05:42.511Z,7.60
2023-05-04T19:11:41.353Z,6.47
2023-05-04T19:14:09.210Z,8.40
2023-05-04T19:16:38.886Z,8.43
2023-05-04T19:22:35.208Z,10.40
2023-05-04T19:25:04.496Z,9.80
2023-05-04T19:28:22.647Z,8.25
2023-05-04T19:31:13.522Z,11.52
2023-05-04T19:33:48.400Z,7.53
2023-05-04T19:36:18.356Z,9.50
2023-05-04T19:38:55.409Z,6.88
2023-05-04T19:41:30.511Z,10.73
2023-05-04T19:44:48.380Z,8.38
2023-05-04T19:47:16.027Z,8.27
2023-05-04T19:53:25.174Z,9.85
2023-05-04T19:55:53.463Z,11.93
2023-05-04T19:58:37.708Z,9.10
2023-05-04T20:08:21.077Z,7.43
2023-05-04T20:10:48.528Z,8.73
2023-05-04T20:26:26.315Z,6.00
2023-05-04T20:29:44.145Z,7.93
2023-05-04T20:32:46.261Z,5.43
2023-05-04T20:35:13.744Z,9.00
2023-05-04T20:37:41.199Z,7.17
2023-05-04T20:40:09.582Z,6.00
2023-05-04T20:42:37.281Z,5.60
2023-05-04T20:45:06.942Z,11.43
2023-05-04T20:47:34.433Z,8.25
2023-05-04T20:50:06.405Z,6.50
2023-05-04T20:52:34.216Z,6.15
2023-05-04T20:55:02.121Z,5.25
2023-05-04T20:57:33.361Z,6.85
2023-05-04T21:00:08.858Z,7.20
2023-05-04T21:02:36.902Z,4.30
2023-05-04T21:05:04.729Z,9.05
2023-05-04T21:08:17.006Z,4.63
2023-05-04T21:10:44.273Z,4.43
2023-05-04T21:13:14.021Z,9.43
2023-05-04T21:15:41.711Z,7.63
2023-05-04T21:18:09.636Z,5.65
2023-05-04T21:20:45.087Z,5.75
2023-05-04T21:23:34.149Z,4.82
2023-05-04T21:26:05.671Z,5.53
2023-05-04T21:28:33.886Z,4.43
2023-05-04T21:31:02.278Z,4.50
2023-05-04T21:33:29.849Z,4.57
2023-05-04T21:35:58.887Z,6.70
2023-05-04T21:38:26.311Z,3.80
2023-05-04T21:40:57.041Z,4.30
2023-05-04T21:43:26.916Z,4.40
2023-05-04T21:45:56.107Z,4.68
2023-05-04T21:48:23.554Z,5.22
2023-05-04T21:50:51.540Z,5.78
2023-05-04T21:56:10.583Z,4.70
2023-05-04T21:58:43.279Z,6.50
2023-05-04T22:01:19.570Z,6.28
2023-05-04T22:03:50.235Z,4.68
2023-05-04T22:06:28.137Z,5.20
2023-05-04T22:08:56.978Z,5.03
2023-05-04T22:11:25.710Z,5.57
2023-05-04T22:14:20.988Z,5.45
2023-05-04T22:16:52.418Z,5.78
2023-05-04T22:19:20.914Z,4.17
2023-05-04T22:21:51.347Z,5.40
2023-05-04T22:24:22.270Z,4.05
2023-05-04T22:26:52.808Z,5.28
2023-05-04T22:29:22.609Z,7.00
2023-05-04T22:31:55.382Z,6.57
2023-05-04T22:34:35.441Z,4.68
2023-05-04T22:37:11.185Z,3.67
2023-05-04T22:39:53.037Z,5.50
2023-05-04T22:42:20.877Z,5.10
2023-05-04T22:44:51.497Z,4.17
2023-05-04T22:47:25.179Z,6.07
2023-05-04T22:49:59.733Z,3.92
2023-05-04T22:52:27.641Z,4.35
2023-05-04T22:54:54.927Z,4.05
2023-05-04T22:57:22.462Z,4.43
2023-05-04T22:59:50.109Z,4.15
2023-05-04T23:02:17.422Z,3.58
2023-05-04T23:04:44.968Z,4.70
2023-05-04T23:07:12.446Z,5.25
2023-05-04T23:09:47.052Z,3.53
2023-05-04T23:12:15.443Z,4.07
2023-05-04T23:14:42.910Z,4.53
2023-05-04T23:17:14.744Z,5.40
2023-05-04T23:19:42.097Z,3.33
2023-05-04T23:22:20.123Z,4.43
2023-05-04T23:24:49.893Z,4.80
2023-05-04T23:27:20.176Z,4.13
2023-05-04T23:29:48.000Z,4.05
2023-05-04T23:32:15.495Z,4.03
2023-05-04T23:34:47.361Z,4.67
2023-05-04T23:37:14.972Z,5.00
2023-05-04T23:39:42.245Z,5.22
2023-05-04T23:42:09.701Z,7.45
2023-05-04T23:44:37.239Z,5.43
2023-05-04T23:47:06.851Z,4.07
2023-05-04T23:49:36.527Z,4.75
2023-05-04T23:52:07.471Z,5.13
2023-05-04T23:54:34.885Z,4.43
2023-05-04T23:57:10.634Z,6.03
2023-05-04T23:59:37.875Z,4.23
